createdAt,value
2022-12-03T00:00:31.155Z,30.58
2022-12-03T00:02:57.877Z,28.17
2022-12-03T00:05:24.543Z,31.33
2022-12-03T00:07:50.991Z,30.83
2022-12-03T00:10:17.530Z,28.50
2022-12-03T00:12:44.041Z,28.55
2022-12-03T00:15:11.479Z,27.23
2022-12-03T00:17:38.050Z,26.95
2022-12-03T00:20:16.919Z,28.08
2022-12-03T00:22:43.401Z,31.40
2022-12-03T00:25:09.936Z,30.85
2022-12-03T00:27:36.458Z,31.40
2022-12-03T00:30:03.772Z,31.23
2022-12-03T00:32:30.612Z,30.77
2022-12-03T00:34:57.303Z,29.20
2022-12-03T00:37:23.732Z,27.35
2022-12-03T00:39:50.572Z,30.58
2022-12-03T00:42:17.028Z,30.38
2022-12-03T00:44:43.540Z,29.35
2022-12-03T00:47:10.188Z,32.17
2022-12-03T00:49:36.699Z,28.85
2022-12-03T00:52:03.305Z,34.38
2022-12-03T00:54:32.037Z,26.17
2022-12-03T00:56:58.907Z,33.05
2022-12-03T00:59:25.432Z,28.10
2022-12-03T01:01:52.095Z,31.27
2022-12-03T01:04:18.863Z,29.55
2022-12-03T01:06:45.551Z,32.03
2022-12-03T01:09:12.096Z,29.95
2022-12-03T01:11:38.685Z,33.77
2022-12-03T01:14:10.564Z,31.60
2022-12-03T01:16:37.777Z,32.00
2022-12-03T01:19:07.003Z,31.65
2022-12-03T01:21:33.505Z,29.55
2022-12-03T01:24:00.001Z,31.47
2022-12-03T01:26:26.690Z,32.17
2022-12-03T01:28:53.388Z,32.70
2022-12-03T01:31:20.215Z,34.35
2022-12-03T01:33:46.792Z,30.50
2022-12-03T01:36:13.323Z,32.93
2022-12-03T01:38:39.824Z,31.80
2022-12-03T01:41:11.542Z,31.98
2022-12-03T01:43:38.802Z,32.78
2022-12-03T01:46:06.680Z,32.83
2022-12-03T01:48:37.780Z,28.77
2022-12-03T01:51:05.864Z,33.58
2022-12-03T01:53:32.540Z,32.60
2022-12-03T01:55:59.251Z,35.50
2022-12-03T01:58:28.474Z,34.70
2022-12-03T02:00:56.189Z,34.57
2022-12-03T02:03:25.640Z,32.53
2022-12-03T02:05:53.008Z,33.00
2022-12-03T02:08:35.328Z,31.95
2022-12-03T02:11:18.264Z,31.80
2022-12-03T02:13:45.274Z,31.67
2022-12-03T02:16:11.796Z,30.88
2022-12-03T02:18:38.342Z,32.08
2022-12-03T02:21:18.694Z,34.13
2022-12-03T02:24:03.340Z,34.03
2022-12-03T02:26:29.801Z,34.93
2022-12-03T02:28:56.805Z,34.85
2022-12-03T02:31:24.152Z,29.05
2022-12-03T02:33:50.682Z,32.90
2022-12-03T02:36:17.254Z,33.75
2022-12-03T02:38:45.616Z,35.03
2022-12-03T02:41:15.814Z,35.40
2022-12-03T02:43:42.269Z,33.25
2022-12-03T02:46:08.852Z,36.53
2022-12-03T02:48:38.287Z,31.75
2022-12-03T02:51:08.690Z,32.77
2022-12-03T02:53:39.900Z,33.78
2022-12-03T02:56:06.851Z,35.40
2022-12-03T02:58:34.024Z,35.00
2022-12-03T03:01:03.036Z,37.63
2022-12-03T03:03:32.100Z,34.97
2022-12-03T03:06:02.187Z,35.22
2022-12-03T03:08:29.377Z,35.10
2022-12-03T03:10:57.291Z,31.92
2022-12-03T03:13:23.759Z,34.10
2022-12-03T03:15:50.341Z,36.40
2022-12-03T03:18:17.627Z,34.95
2022-12-03T03:20:45.074Z,38.83
2022-12-03T03:23:11.438Z,37.88
2022-12-03T03:25:39.509Z,34.50
2022-12-03T03:28:07.129Z,37.93
2022-12-03T03:30:37.182Z,37.60
2022-12-03T03:33:03.670Z,38.58
2022-12-03T03:35:30.406Z,38.97
2022-12-03T03:37:57.850Z,37.28
2022-12-03T03:40:25.556Z,38.53
2022-12-03T03:42:52.008Z,36.63
2022-12-03T03:45:24.008Z,41.33
2022-12-03T03:47:54.548Z,40.13
2022-12-03T03:50:21.653Z,38.97
2022-12-03T03:52:48.177Z,38.07
2022-12-03T03:55:14.925Z,38.72
2022-12-03T03:57:41.356Z,41.47
2022-12-03T04:00:08.810Z,37.90
2022-12-03T04:02:36.458Z,37.22
2022-12-03T04:05:03.379Z,40.63
2022-12-03T04:07:29.793Z,38.20
2022-12-03T04:09:56.224Z,40.15
2022-12-03T04:12:22.677Z,34.10
2022-12-03T04:14:49.090Z,39.72
2022-12-03T04:17:15.520Z,37.70
2022-12-03T04:19:41.914Z,40.83
2022-12-03T04:22:08.304Z,38.97
2022-12-03T04:24:34.785Z,36.30
2022-12-03T04:27:01.195Z,38.50
2022-12-03T04:29:27.649Z,33.37
2022-12-03T04:31:54.077Z,39.60
2022-12-03T04:34:20.515Z,39.00
2022-12-03T04:36:47.425Z,45.38
2022-12-03T04:39:14.009Z,41.53
2022-12-03T04:41:40.383Z,39.43
2022-12-03T04:44:06.987Z,40.33
2022-12-03T04:46:33.548Z,39.63
2022-12-03T04:48:59.933Z,39.72
2022-12-03T04:51:26.332Z,38.72
2022-12-03T04:53:52.765Z,40.57
2022-12-03T04:56:19.207Z,44.88
2022-12-03T04:58:45.634Z,40.50
2022-12-03T05:01:12.097Z,39.72
2022-12-03T05:03:38.535Z,38.30
2022-12-03T05:06:05.047Z,39.17
2022-12-03T05:08:31.471Z,41.67
2022-12-03T05:10:57.922Z,42.40
2022-12-03T05:13:24.332Z,37.10
2022-12-03T05:15:50.818Z,38.03
2022-12-03T05:18:17.247Z,39.00
2022-12-03T05:20:47.134Z,34.72
2022-12-03T05:23:19.286Z,40.80
2022-12-03T05:25:45.735Z,40.35
2022-12-03T05:28:12.253Z,40.92
2022-12-03T05:30:38.786Z,39.40
2022-12-03T05:33:05.312Z,40.40
2022-12-03T05:35:31.868Z,40.17
2022-12-03T05:37:58.283Z,44.58
2022-12-03T05:40:25.018Z,43.33
2022-12-03T05:42:51.451Z,43.10
2022-12-03T05:45:17.925Z,41.15
2022-12-03T05:47:44.643Z,43.08
2022-12-03T05:50:11.421Z,40.05
2022-12-03T05:52:37.869Z,37.97
2022-12-03T05:55:04.655Z,37.87
2022-12-03T05:57:31.063Z,39.75
2022-12-03T05:59:57.506Z,41.42
2022-12-03T06:02:24.046Z,39.42
2022-12-03T06:04:50.809Z,38.95
2022-12-03T06:07:17.441Z,38.10
2022-12-03T06:09:43.941Z,36.28
2022-12-03T06:12:10.342Z,34.88
2022-12-03T06:14:36.808Z,35.08
2022-12-03T06:17:03.471Z,34.35
2022-12-03T06:19:29.953Z,34.27
2022-12-03T06:21:56.546Z,35.65
2022-12-03T06:24:22.952Z,35.20
2022-12-03T06:26:49.459Z,30.00
2022-12-03T06:29:16.014Z,34.10
2022-12-03T06:31:42.592Z,33.63
2022-12-03T06:34:09.127Z,35.90
2022-12-03T06:36:35.523Z,32.88
2022-12-03T06:39:02.006Z,34.25
2022-12-03T06:41:28.409Z,34.72
2022-12-03T06:43:54.865Z,34.10
2022-12-03T06:46:21.409Z,30.90
2022-12-03T06:48:47.890Z,33.92
2022-12-03T06:51:14.285Z,34.20
2022-12-03T06:53:40.713Z,31.17
2022-12-03T06:56:07.450Z,34.23
2022-12-03T06:58:33.930Z,34.97
2022-12-03T07:01:00.396Z,36.15
2022-12-03T07:03:26.855Z,33.72
2022-12-03T07:05:53.279Z,33.60
2022-12-03T07:08:19.717Z,31.97
2022-12-03T07:10:46.193Z,35.28
2022-12-03T07:13:12.647Z,33.35
2022-12-03T07:15:39.059Z,33.97
2022-12-03T07:18:05.590Z,32.42
2022-12-03T07:20:32.071Z,31.30
2022-12-03T07:22:58.523Z,38.17
2022-12-03T07:25:24.953Z,35.70
2022-12-03T07:27:51.346Z,40.40
2022-12-03T07:30:18.497Z,39.10
2022-12-03T07:32:44.888Z,34.53
2022-12-03T07:35:11.392Z,37.50
2022-12-03T07:37:37.862Z,40.08
2022-12-03T07:40:06.130Z,39.20
2022-12-03T07:42:32.553Z,38.53
2022-12-03T07:44:58.978Z,42.10
2022-12-03T07:47:25.444Z,40.58
2022-12-03T07:49:51.866Z,38.45
2022-12-03T07:52:18.265Z,41.15
2022-12-03T07:54:44.738Z,44.22
2022-12-03T07:57:11.178Z,40.13
2022-12-03T07:59:37.604Z,38.78
2022-12-03T08:02:04.062Z,42.78
2022-12-03T08:04:30.504Z,40.42
2022-12-03T08:06:56.969Z,42.88
2022-12-03T08:09:23.407Z,43.43
2022-12-03T08:11:50.135Z,39.95
2022-12-03T08:14:18.856Z,42.28
2022-12-03T08:16:46.777Z,42.33
2022-12-03T08:19:15.974Z,39.25
2022-12-03T08:21:44.733Z,39.37
2022-12-03T08:24:18.014Z,42.35
2022-12-03T08:26:46.254Z,39.30
2022-12-03T08:29:18.052Z,45.28
2022-12-03T08:31:49.690Z,40.28
2022-12-03T08:34:23.355Z,39.60
2022-12-03T08:36:56.013Z,40.08
2022-12-03T08:39:29.537Z,39.80
2022-12-03T08:42:13.528Z,36.03
2022-12-03T08:44:40.332Z,38.25
2022-12-03T08:47:09.824Z,38.53
2022-12-03T08:49:37.076Z,36.08
2022-12-03T08:52:13.154Z,39.45
2022-12-03T08:54:39.593Z,41.28
2022-12-03T08:57:28.952Z,37.65
2022-12-03T09:00:11.609Z,42.80
2022-12-03T09:02:40.419Z,41.83
2022-12-03T09:05:20.847Z,44.10
2022-12-03T09:07:47.391Z,35.75
2022-12-03T09:10:13.823Z,40.35
2022-12-03T09:12:40.285Z,35.83
2022-12-03T09:15:07.696Z,39.65
2022-12-03T09:17:34.280Z,40.83
2022-12-03T09:20:00.813Z,39.88
2022-12-03T09:22:27.273Z,41.65
2022-12-03T09:24:54.076Z,36.37
2022-12-03T09:27:20.878Z,39.65
2022-12-03T09:29:47.419Z,37.22
2022-12-03T09:32:18.341Z,38.67
2022-12-03T09:34:45.277Z,40.95
2022-12-03T09:37:11.739Z,42.93
2022-12-03T09:39:38.160Z,39.00
2022-12-03T09:42:05.032Z,39.15
2022-12-03T09:44:34.445Z,41.08
2022-12-03T09:47:02.467Z,41.33
2022-12-03T09:49:30.303Z,40.83
2022-12-03T09:51:58.238Z,43.80
2022-12-03T09:54:27.713Z,39.17
2022-12-03T09:56:56.053Z,38.83
2022-12-03T09:59:25.713Z,42.33
2022-12-03T10:01:53.428Z,42.50
2022-12-03T10:04:20.222Z,40.05
2022-12-03T10:06:47.342Z,46.13
2022-12-03T10:09:16.843Z,40.38
2022-12-03T10:11:43.592Z,41.58
2022-12-03T10:14:13.611Z,45.00
2022-12-03T10:16:41.390Z,43.15
2022-12-03T10:19:11.543Z,43.25
2022-12-03T10:21:38.953Z,46.80
2022-12-03T10:24:21.309Z,45.45
2022-12-03T10:26:49.832Z,44.90
2022-12-03T10:29:20.546Z,46.13
2022-12-03T10:31:55.905Z,44.38
2022-12-03T10:34:33.976Z,41.83
2022-12-03T10:37:11.527Z,47.85
2022-12-03T10:40:03.904Z,42.73
2022-12-03T10:42:32.937Z,44.42
2022-12-03T10:45:19.598Z,49.15
2022-12-03T10:48:13.831Z,43.00
2022-12-03T10:50:57.324Z,45.40
2022-12-03T10:53:28.303Z,45.27
2022-12-03T10:55:55.423Z,48.83
2022-12-03T10:58:24.714Z,47.35
2022-12-03T11:00:53.486Z,41.92
2022-12-03T11:03:26.003Z,51.15
2022-12-03T11:05:53.788Z,49.17
2022-12-03T11:08:23.842Z,50.15
2022-12-03T11:11:21.264Z,44.83
2022-12-03T11:14:04.459Z,45.95
2022-12-03T11:16:39.957Z,47.20
2022-12-03T11:19:12.324Z,41.57
2022-12-03T11:22:03.545Z,41.10
2022-12-03T11:24:30.647Z,41.85
2022-12-03T11:26:57.010Z,46.40
2022-12-03T11:29:48.092Z,44.88
2022-12-03T11:32:39.288Z,44.57
2022-12-03T11:35:25.696Z,43.10
2022-12-03T11:37:52.694Z,46.15
2022-12-03T11:40:19.149Z,45.40
2022-12-03T11:42:47.641Z,49.20
2022-12-03T11:45:23.141Z,41.80
2022-12-03T11:47:58.381Z,46.30
2022-12-03T11:50:52.870Z,46.13
2022-12-03T11:53:23.005Z,51.83
2022-12-03T11:55:53.277Z,47.22
2022-12-03T11:58:30.255Z,48.33
2022-12-03T12:00:59.103Z,47.08
2022-12-03T12:03:36.974Z,50.40
2022-12-03T12:06:05.107Z,51.10
2022-12-03T12:08:32.304Z,54.75
2022-12-03T12:10:59.045Z,51.77
2022-12-03T12:13:31.255Z,54.55
2022-12-03T12:16:02.031Z,47.75
2022-12-03T12:18:43.901Z,50.38
2022-12-03T12:21:47.802Z,49.08
2022-12-03T12:24:38.605Z,45.57
2022-12-03T12:27:08.070Z,46.70
2022-12-03T12:29:36.101Z,46.40
2022-12-03T12:32:05.701Z,47.83
2022-12-03T12:34:32.123Z,47.30
2022-12-03T12:37:00.382Z,50.87
2022-12-03T12:39:26.992Z,45.22
2022-12-03T12:41:54.305Z,51.20
2022-12-03T12:44:21.804Z,51.80
2022-12-03T12:46:52.781Z,49.60
2022-12-03T12:49:19.369Z,52.27
2022-12-03T12:51:47.506Z,52.20
2022-12-03T12:54:16.187Z,59.40
2022-12-03T12:56:44.908Z,57.85
2022-12-03T12:59:14.685Z,58.50
2022-12-03T13:01:42.856Z,63.63
2022-12-03T13:04:23.597Z,54.03
2022-12-03T13:06:54.215Z,52.33
2022-12-03T13:09:23.507Z,54.42
2022-12-03T13:11:58.550Z,51.08
2022-12-03T13:14:30.193Z,49.53
2022-12-03T13:16:58.931Z,49.10
2022-12-03T13:19:49.540Z,49.55
2022-12-03T13:22:22.449Z,53.13
2022-12-03T13:24:50.584Z,51.03
2022-12-03T13:27:19.862Z,50.63
2022-12-03T13:29:49.081Z,48.15
2022-12-03T13:32:26.508Z,46.67
2022-12-03T13:34:55.399Z,50.63
2022-12-03T13:37:25.246Z,49.33
2022-12-03T13:39:54.523Z,48.97
2022-12-03T13:42:33.305Z,52.88
2022-12-03T13:45:01.540Z,56.72
2022-12-03T13:47:28.030Z,56.05
2022-12-03T13:50:01.873Z,54.55
2022-12-03T13:52:34.550Z,46.27
2022-12-03T13:55:03.563Z,52.30
2022-12-03T13:57:30.042Z,49.13
2022-12-03T13:59:56.871Z,49.78
2022-12-03T14:02:23.592Z,54.85
2022-12-03T14:04:51.354Z,46.53
2022-12-03T14:07:19.546Z,52.05
2022-12-03T14:09:45.989Z,46.05
2022-12-03T14:12:12.446Z,41.97
2022-12-03T14:14:38.901Z,47.88
2022-12-03T14:17:05.379Z,55.37
2022-12-03T14:19:32.343Z,43.42
2022-12-03T14:21:58.857Z,44.20
2022-12-03T14:24:25.952Z,45.17
2022-12-03T14:26:52.441Z,48.55
2022-12-03T14:29:18.885Z,39.83
2022-12-03T14:31:45.388Z,47.25
2022-12-03T14:34:11.995Z,44.47
2022-12-03T14:36:38.511Z,48.78
2022-12-03T14:39:04.986Z,44.08
2022-12-03T14:41:31.525Z,47.47
2022-12-03T14:43:57.954Z,41.42
2022-12-03T14:46:24.497Z,36.85
2022-12-03T14:48:50.957Z,43.45
2022-12-03T14:51:17.412Z,43.15
2022-12-03T14:53:43.834Z,44.93
2022-12-03T14:56:10.240Z,46.40
2022-12-03T14:58:36.681Z,42.00
2022-12-03T15:01:03.147Z,48.45
2022-12-03T15:03:29.624Z,43.92
2022-12-03T15:05:56.037Z,38.83
2022-12-03T15:08:22.520Z,43.75
2022-12-03T15:10:48.955Z,39.42
2022-12-03T15:13:15.395Z,42.17
2022-12-03T15:15:41.816Z,43.58
2022-12-03T15:18:08.236Z,43.33
2022-12-03T15:20:34.913Z,46.60
2022-12-03T15:23:01.446Z,46.75
2022-12-03T15:25:27.821Z,43.05
2022-12-03T15:27:54.358Z,49.30
2022-12-03T15:30:20.930Z,47.43
2022-12-03T15:32:47.484Z,45.30
2022-12-03T15:35:13.900Z,45.85
2022-12-03T15:37:40.353Z,49.60
2022-12-03T15:40:07.330Z,47.95
2022-12-03T15:42:33.748Z,50.00
2022-12-03T15:45:00.113Z,44.13
2022-12-03T15:47:26.544Z,46.63
2022-12-03T15:49:53.345Z,51.03
2022-12-03T15:52:19.839Z,44.17
2022-12-03T15:54:46.241Z,43.20
2022-12-03T15:57:12.639Z,45.88
2022-12-03T15:59:39.008Z,41.10
2022-12-03T16:02:05.521Z,46.15
2022-12-03T16:04:32.078Z,50.08
2022-12-03T16:06:58.464Z,49.40
2022-12-03T16:09:27.386Z,46.35
2022-12-03T16:11:53.955Z,54.80
2022-12-03T16:14:20.428Z,50.97
2022-12-03T16:16:47.021Z,48.97
2022-12-03T16:19:13.449Z,50.90
2022-12-03T16:21:39.875Z,51.45
2022-12-03T16:24:06.440Z,47.47
2022-12-03T16:26:32.884Z,49.78
2022-12-03T16:28:59.369Z,48.58
2022-12-03T16:31:25.853Z,53.23
2022-12-03T16:33:52.289Z,45.10
2022-12-03T16:36:18.710Z,61.13
2022-12-03T16:38:45.111Z,49.45
2022-12-03T16:41:11.604Z,50.92
2022-12-03T16:43:38.040Z,46.23
2022-12-03T16:46:06.062Z,50.10
2022-12-03T16:48:32.540Z,59.35
2022-12-03T16:50:58.978Z,48.05
2022-12-03T16:53:25.496Z,50.75
2022-12-03T16:55:51.941Z,49.67
2022-12-03T16:58:18.421Z,55.00
2022-12-03T17:00:44.864Z,57.28
2022-12-03T17:03:11.312Z,56.08
2022-12-03T17:05:37.863Z,53.10
2022-12-03T17:08:04.462Z,78.77
2022-12-03T17:10:31.100Z,62.78
2022-12-03T17:13:12.962Z,53.83
2022-12-03T17:15:40.258Z,59.72
2022-12-03T17:18:07.931Z,56.03
2022-12-03T17:20:34.640Z,51.03
2022-12-03T17:23:01.630Z,55.90
2022-12-03T17:25:28.587Z,53.17
2022-12-03T17:27:55.092Z,61.00
2022-12-03T17:30:21.544Z,47.95
2022-12-03T17:32:47.993Z,51.80
2022-12-03T17:35:14.483Z,53.97
2022-12-03T17:37:40.955Z,53.08
2022-12-03T17:40:11.543Z,51.28
2022-12-03T17:42:38.159Z,57.95
2022-12-03T17:45:05.244Z,54.43
2022-12-03T17:47:31.767Z,57.28
2022-12-03T17:49:58.170Z,57.40
2022-12-03T17:52:24.593Z,60.47
2022-12-03T17:57:37.467Z,60.03
2022-12-03T18:00:04.797Z,54.15
2022-12-03T18:02:31.284Z,58.33
2022-12-03T18:04:57.700Z,65.28
2022-12-03T18:07:24.117Z,55.70
2022-12-03T18:09:50.537Z,56.33
2022-12-03T18:12:17.000Z,60.47
2022-12-03T18:14:43.403Z,57.65
2022-12-03T18:17:09.922Z,58.17
2022-12-03T18:19:36.453Z,52.20
2022-12-03T18:22:02.904Z,47.97
2022-12-03T18:24:29.351Z,57.80
2022-12-03T18:26:55.844Z,54.30
2022-12-03T18:29:22.407Z,54.78
2022-12-03T18:31:48.883Z,57.50
2022-12-03T18:34:15.370Z,56.63
2022-12-03T18:36:42.127Z,52.80
2022-12-03T18:39:18.588Z,56.95
2022-12-03T18:41:45.030Z,61.05
2022-12-03T18:44:11.544Z,51.58
2022-12-03T18:46:52.921Z,54.27
2022-12-03T18:49:19.674Z,55.67
2022-12-03T18:51:46.148Z,58.50
2022-12-03T18:54:13.361Z,58.42
2022-12-03T18:56:41.460Z,61.60
2022-12-03T18:59:08.685Z,100.63
2022-12-03T19:01:35.972Z,64.03
2022-12-03T19:04:02.663Z,53.20
2022-12-03T19:06:29.216Z,57.90
2022-12-03T19:08:55.726Z,60.88
2022-12-03T19:11:22.563Z,58.67
2022-12-03T19:13:49.030Z,59.95
2022-12-03T19:16:15.480Z,61.10
2022-12-03T19:18:42.007Z,55.42
2022-12-03T19:21:10.797Z,63.65
2022-12-03T19:23:38.062Z,56.20
2022-12-03T19:26:06.572Z,56.42
2022-12-03T19:28:33.982Z,60.17
2022-12-03T19:31:06.580Z,54.30
2022-12-03T19:33:34.510Z,56.85
2022-12-03T19:36:05.694Z,56.17
2022-12-03T19:38:33.159Z,59.03
2022-12-03T19:41:05.964Z,59.05
2022-12-03T19:43:34.104Z,64.65
2022-12-03T19:46:09.029Z,59.15
2022-12-03T19:48:37.956Z,56.20
2022-12-03T19:51:32.424Z,57.67
2022-12-03T19:53:53.736Z,60.50
2022-12-03T19:56:20.221Z,74.80
2022-12-03T19:58:47.532Z,62.13
2022-12-03T20:01:20.629Z,58.33
2022-12-03T20:03:50.560Z,63.97
2022-12-03T20:06:20.681Z,60.83
2022-12-03T20:08:47.110Z,65.03
2022-12-03T20:11:22.096Z,62.53
2022-12-03T20:13:51.956Z,59.13
2022-12-03T20:16:18.388Z,61.72
2022-12-03T20:18:46.640Z,58.33
2022-12-03T20:21:16.065Z,60.83
2022-12-03T20:23:42.802Z,59.05
2022-12-03T20:26:11.019Z,59.63
2022-12-03T20:28:37.431Z,60.50
2022-12-03T20:31:07.178Z,70.10
2022-12-03T20:33:33.570Z,67.90
2022-12-03T20:36:00.002Z,64.03
2022-12-03T20:38:26.606Z,68.07
2022-12-03T20:40:53.413Z,64.60
2022-12-03T20:43:20.183Z,61.25
2022-12-03T20:45:46.668Z,64.88
2022-12-03T20:48:13.115Z,62.47
2022-12-03T20:50:39.948Z,70.37
2022-12-03T20:53:24.377Z,67.57
2022-12-03T20:55:55.954Z,70.00
2022-12-03T20:58:22.442Z,65.03
2022-12-03T21:00:48.968Z,68.68
2022-12-03T21:03:15.593Z,68.80
2022-12-03T21:05:42.592Z,60.80
2022-12-03T21:08:09.387Z,65.60
2022-12-03T21:10:41.037Z,67.70
2022-12-03T21:13:07.474Z,66.22
2022-12-03T21:15:33.984Z,70.67
2022-12-03T21:18:00.464Z,63.63
2022-12-03T21:20:26.863Z,69.78
2022-12-03T21:22:53.261Z,72.45
2022-12-03T21:25:19.632Z,70.80
2022-12-03T21:27:46.071Z,75.30
2022-12-03T21:30:12.729Z,65.00
2022-12-03T21:32:39.184Z,68.90
2022-12-03T21:35:06.020Z,75.68
2022-12-03T21:37:32.434Z,72.25
2022-12-03T21:39:58.863Z,74.20
2022-12-03T21:42:36.838Z,73.00
2022-12-03T21:45:06.523Z,68.88
2022-12-03T21:47:37.163Z,67.78
2022-12-03T21:50:06.039Z,67.75
2022-12-03T21:52:33.809Z,72.33
2022-12-03T21:55:00.256Z,70.85
2022-12-03T21:57:26.785Z,68.45
2022-12-03T21:59:54.974Z,66.38
2022-12-03T22:02:22.174Z,74.63
2022-12-03T22:04:51.417Z,68.33
2022-12-03T22:07:20.257Z,64.68
2022-12-03T22:09:46.780Z,85.45
2022-12-03T22:12:13.176Z,75.68
2022-12-03T22:14:39.640Z,72.38
2022-12-03T22:17:06.073Z,76.70
2022-12-03T22:19:32.638Z,70.15
2022-12-03T22:21:59.158Z,71.70
2022-12-03T22:24:25.573Z,64.32
2022-12-03T22:26:51.933Z,68.78
2022-12-03T22:29:18.380Z,64.77
2022-12-03T22:31:44.803Z,69.07
2022-12-03T22:34:11.305Z,68.65
2022-12-03T22:36:37.819Z,69.75
2022-12-03T22:39:04.434Z,66.78
2022-12-03T22:41:30.950Z,68.47
2022-12-03T22:43:57.367Z,68.75
2022-12-03T22:46:23.904Z,67.80
2022-12-03T22:48:50.405Z,77.57
2022-12-03T22:51:22.404Z,74.00
2022-12-03T22:53:54.712Z,65.63
2022-12-03T22:56:21.143Z,63.75
2022-12-03T22:58:47.645Z,69.47
2022-12-03T23:01:22.348Z,67.93
2022-12-03T23:03:49.145Z,71.85
2022-12-03T23:06:16.011Z,67.00
2022-12-03T23:08:42.687Z,70.30
2022-12-03T23:11:09.198Z,81.32
2022-12-03T23:13:36.438Z,75.15
2022-12-03T23:16:03.950Z,68.85
2022-12-03T23:18:30.656Z,64.00
2022-12-03T23:20:57.560Z,65.43
2022-12-03T23:23:25.921Z,69.00
2022-12-03T23:26:01.116Z,69.85
2022-12-03T23:28:29.331Z,68.25
2022-12-03T23:30:56.510Z,68.50
2022-12-03T23:33:23.908Z,68.93
2022-12-03T23:35:50.670Z,65.07
2022-12-03T23:38:17.396Z,70.43
2022-12-03T23:40:48.013Z,62.88
2022-12-03T23:43:15.225Z,67.83
2022-12-03T23:45:41.692Z,65.93
2022-12-03T23:48:08.175Z,69.95
2022-12-03T23:50:34.575Z,67.63
2022-12-03T23:53:00.998Z,71.45
2022-12-03T23:55:27.407Z,62.90
2022-12-03T23:57:53.839Z,67.70
